createdAt,value
2022-08-26T00:00:19.629Z,7.20
2022-08-26T00:01:29.098Z,6.80
2022-08-26T00:02:32.892Z,6.70
2022-08-26T00:03:35.821Z,6.90
2022-08-26T00:04:38.423Z,6.77
2022-08-26T00:05:40.601Z,7.87
2022-08-26T00:06:46.172Z,8.43
2022-08-26T00:07:48.534Z,7.07
2022-08-26T00:08:51.821Z,7.67
2022-08-26T00:09:54.362Z,7.30
2022-08-26T00:10:58.060Z,7.47
2022-08-26T00:12:01.866Z,7.07
2022-08-26T00:13:06.597Z,7.50
2022-08-26T00:14:09.820Z,7.40
2022-08-26T00:15:15.424Z,8.07
2022-08-26T00:16:17.200Z,7.40
2022-08-26T00:17:19.838Z,7.57
2022-08-26T00:18:23.284Z,8.60
2022-08-26T00:19:28.583Z,8.13
2022-08-26T00:20:32.761Z,7.63
2022-08-26T00:21:37.574Z,9.60
2022-08-26T00:22:41.167Z,8.60
2022-08-26T00:23:43.820Z,9.17
2022-08-26T00:24:47.821Z,9.27
2022-08-26T00:25:50.793Z,9.63
2022-08-26T00:26:52.389Z,10.27
2022-08-26T00:27:54.929Z,10.50
2022-08-26T00:28:59.073Z,11.80
2022-08-26T00:30:03.296Z,10.30
2022-08-26T00:31:05.377Z,10.10
2022-08-26T00:32:09.585Z,10.07
2022-08-26T00:33:13.155Z,10.00
2022-08-26T00:34:16.661Z,9.10
2022-08-26T00:35:21.464Z,9.57
2022-08-26T00:36:25.687Z,10.63
2022-08-26T00:37:31.970Z,10.07
2022-08-26T00:38:37.814Z,10.83
2022-08-26T00:39:39.663Z,11.30
2022-08-26T00:40:46.899Z,13.70
2022-08-26T00:41:49.000Z,13.57
2022-08-26T00:42:51.644Z,15.50
2022-08-26T00:43:53.331Z,14.97
2022-08-26T00:44:57.345Z,16.97
2022-08-26T00:46:07.348Z,16.60
2022-08-26T00:47:17.397Z,17.40
2022-08-26T00:48:22.603Z,16.30
2022-08-26T00:49:32.377Z,17.60
2022-08-26T00:50:38.424Z,20.00
2022-08-26T00:51:46.811Z,20.83
2022-08-26T00:52:49.091Z,19.77
2022-08-26T00:53:56.353Z,19.97
2022-08-26T00:55:02.458Z,21.57
2022-08-26T00:56:10.689Z,22.20
2022-08-26T00:57:20.054Z,22.33
2022-08-26T00:58:25.133Z,22.70
2022-08-26T00:59:29.102Z,21.77
2022-08-26T01:00:37.153Z,24.57
2022-08-26T01:01:42.621Z,23.90
2022-08-26T01:02:49.512Z,24.00
2022-08-26T01:03:51.205Z,26.20
2022-08-26T01:04:59.892Z,28.00
2022-08-26T01:06:03.601Z,28.27
2022-08-26T01:07:06.879Z,27.10
2022-08-26T01:08:09.190Z,28.90
2022-08-26T01:09:11.954Z,29.27
2022-08-26T01:10:17.503Z,28.43
2022-08-26T01:11:20.952Z,30.40
2022-08-26T01:12:24.921Z,29.10
2022-08-26T01:13:29.939Z,29.23
2022-08-26T01:14:34.966Z,30.30
2022-08-26T01:15:44.574Z,32.20
2022-08-26T01:16:47.432Z,31.47
2022-08-26T01:17:51.696Z,31.77
2022-08-26T01:19:01.285Z,33.87
2022-08-26T01:20:14.070Z,31.87
2022-08-26T01:21:22.891Z,34.20
2022-08-26T01:22:34.973Z,34.63
2022-08-26T01:23:42.167Z,33.30
2022-08-26T01:24:48.141Z,32.00
2022-08-26T01:25:55.830Z,33.63
2022-08-26T01:26:59.527Z,32.90
2022-08-26T01:28:06.567Z,32.83
2022-08-26T01:29:12.648Z,33.23
2022-08-26T01:30:15.665Z,31.40
2022-08-26T01:31:21.250Z,33.50
2022-08-26T01:32:24.687Z,33.30
2022-08-26T01:33:42.035Z,33.77
2022-08-26T01:34:48.034Z,31.77
2022-08-26T01:35:50.196Z,34.93
2022-08-26T01:36:59.655Z,34.70
2022-08-26T01:38:02.264Z,35.87
2022-08-26T01:39:07.342Z,36.63
2022-08-26T01:40:14.309Z,35.00
2022-08-26T01:41:27.236Z,35.60
2022-08-26T01:42:29.729Z,36.17
2022-08-26T01:43:34.775Z,36.67
2022-08-26T01:44:41.051Z,38.87
2022-08-26T01:45:45.101Z,39.83
2022-08-26T01:46:49.963Z,37.67
2022-08-26T01:47:57.376Z,38.80
2022-08-26T01:49:03.302Z,39.87
2022-08-26T01:50:15.795Z,38.60
2022-08-26T01:51:31.716Z,39.63
2022-08-26T01:52:39.082Z,40.80
2022-08-26T01:53:46.110Z,41.30
2022-08-26T01:54:51.152Z,39.50
2022-08-26T01:55:57.163Z,38.70
2022-08-26T01:56:59.589Z,39.00
2022-08-26T01:58:06.258Z,42.33
2022-08-26T01:59:14.319Z,42.47
2022-08-26T02:00:17.043Z,41.27
2022-08-26T02:01:20.810Z,41.60
2022-08-26T02:02:23.464Z,42.40
2022-08-26T02:03:28.832Z,43.00
2022-08-26T02:04:34.626Z,41.67
2022-08-26T02:05:40.345Z,42.20
2022-08-26T02:06:45.695Z,39.17
2022-08-26T02:07:50.657Z,42.60
2022-08-26T02:08:55.321Z,43.53
2022-08-26T02:09:59.359Z,41.70
2022-08-26T02:11:00.986Z,41.27
2022-08-26T02:12:03.863Z,42.77
2022-08-26T02:13:07.822Z,43.17
2022-08-26T02:14:16.052Z,43.60
2022-08-26T02:15:17.999Z,44.70
2022-08-26T02:16:29.609Z,44.00
2022-08-26T02:17:37.264Z,42.70
2022-08-26T02:18:44.547Z,44.47
2022-08-26T02:19:50.367Z,43.30
2022-08-26T02:20:55.047Z,44.73
2022-08-26T02:21:59.357Z,43.83
2022-08-26T02:23:02.590Z,43.07
2022-08-26T02:24:11.991Z,44.50
2022-08-26T02:25:22.832Z,44.10
2022-08-26T02:26:26.910Z,43.40
2022-08-26T02:27:33.438Z,41.50
2022-08-26T02:28:40.687Z,42.10
2022-08-26T02:29:46.390Z,41.70
2022-08-26T02:30:55.381Z,41.47
2022-08-26T02:31:57.432Z,42.87
2022-08-26T02:33:03.466Z,42.00
2022-08-26T02:34:11.294Z,39.97
2022-08-26T02:35:20.045Z,41.40
2022-08-26T02:36:24.944Z,43.23
2022-08-26T02:37:31.499Z,41.60
2022-08-26T02:38:34.123Z,41.40
2022-08-26T02:39:37.428Z,39.00
2022-08-26T02:40:43.781Z,41.20
2022-08-26T02:41:45.740Z,38.97
2022-08-26T02:42:48.430Z,41.37
2022-08-26T02:43:50.083Z,38.60
2022-08-26T02:44:52.746Z,40.97
2022-08-26T02:45:54.456Z,39.57
2022-08-26T02:46:57.094Z,39.50
2022-08-26T02:47:59.688Z,39.93
2022-08-26T02:49:02.603Z,39.90
2022-08-26T02:50:05.129Z,38.30
2022-08-26T02:51:07.841Z,37.80
2022-08-26T02:52:09.663Z,40.87
2022-08-26T02:53:13.184Z,39.73
2022-08-26T02:54:15.493Z,38.80
2022-08-26T02:55:18.626Z,38.13
2022-08-26T02:56:21.716Z,38.40
2022-08-26T02:57:24.448Z,38.00
2022-08-26T02:58:26.221Z,37.67
2022-08-26T02:59:29.408Z,36.37
2022-08-26T03:00:32.470Z,38.30
2022-08-26T03:01:37.153Z,36.50
2022-08-26T03:02:38.816Z,35.73
2022-08-26T03:03:41.492Z,35.30
2022-08-26T03:04:58.156Z,35.37
2022-08-26T03:06:04.482Z,36.73
2022-08-26T03:07:06.936Z,35.37
2022-08-26T03:08:11.633Z,33.00
2022-08-26T03:09:14.022Z,34.60
2022-08-26T03:10:22.037Z,33.73
2022-08-26T03:11:27.626Z,33.80
2022-08-26T03:12:33.597Z,33.80
2022-08-26T03:13:36.686Z,34.50
2022-08-26T03:14:39.359Z,33.77
2022-08-26T03:15:41.918Z,32.77
2022-08-26T03:16:45.393Z,33.90
2022-08-26T03:17:50.496Z,35.13
2022-08-26T03:18:53.763Z,34.63
2022-08-26T03:19:57.222Z,35.00
2022-08-26T03:21:00.400Z,33.97
2022-08-26T03:22:03.889Z,34.97
2022-08-26T03:23:06.468Z,32.63
2022-08-26T03:24:10.485Z,34.10
2022-08-26T03:25:15.515Z,34.83
2022-08-26T03:26:17.283Z,36.50
2022-08-26T03:27:21.196Z,34.60
2022-08-26T03:28:22.897Z,32.63
2022-08-26T03:29:49.540Z,34.67
2022-08-26T03:30:53.398Z,34.53
2022-08-26T03:31:55.327Z,34.90
2022-08-26T03:32:58.065Z,34.40
2022-08-26T03:34:00.278Z,33.90
2022-08-26T03:35:02.916Z,32.70
2022-08-26T03:36:07.661Z,32.17
2022-08-26T03:37:10.240Z,32.03
2022-08-26T03:38:12.923Z,34.77
2022-08-26T03:39:14.626Z,33.20
2022-08-26T03:40:20.402Z,34.07
2022-08-26T03:41:22.238Z,33.27
2022-08-26T03:42:26.610Z,32.17
2022-08-26T03:43:28.239Z,32.70
2022-08-26T03:44:31.428Z,36.70
2022-08-26T03:45:34.557Z,32.00
2022-08-26T03:46:39.236Z,32.40
2022-08-26T03:47:41.084Z,34.00
2022-08-26T03:48:44.350Z,32.50
2022-08-26T03:49:46.382Z,31.80
2022-08-26T03:50:49.021Z,33.83
2022-08-26T03:51:53.119Z,33.77
2022-08-26T03:52:56.693Z,33.63
2022-08-26T03:54:00.516Z,32.07
2022-08-26T03:55:05.138Z,32.63
2022-08-26T03:56:08.127Z,31.77
2022-08-26T03:57:09.809Z,32.27
2022-08-26T03:58:13.712Z,31.20
2022-08-26T03:59:15.351Z,30.87
2022-08-26T04:00:20.119Z,31.03
2022-08-26T04:01:21.843Z,32.80
2022-08-26T04:02:24.853Z,29.70
2022-08-26T04:03:46.641Z,32.03
2022-08-26T04:04:49.181Z,30.60
2022-08-26T04:05:51.685Z,30.50
2022-08-26T04:06:59.207Z,29.40
2022-08-26T04:08:00.869Z,29.17
2022-08-26T04:09:09.395Z,29.00
2022-08-26T04:10:12.505Z,29.57
2022-08-26T04:11:18.673Z,27.87
2022-08-26T04:12:20.925Z,29.03
2022-08-26T04:13:24.955Z,28.00
2022-08-26T04:14:27.776Z,27.87
2022-08-26T04:15:30.478Z,28.87
2022-08-26T04:16:33.413Z,28.30
2022-08-26T04:17:36.235Z,26.23
2022-08-26T04:18:38.186Z,28.40
2022-08-26T04:19:49.385Z,27.80
2022-08-26T04:20:51.021Z,27.27
2022-08-26T04:21:54.880Z,25.97
2022-08-26T04:22:57.584Z,24.93
2022-08-26T04:23:59.283Z,25.60
2022-08-26T04:25:06.932Z,25.60
2022-08-26T04:26:08.635Z,25.33
2022-08-26T04:27:12.053Z,26.10
2022-08-26T04:28:14.713Z,25.53
2022-08-26T04:29:23.991Z,25.30
2022-08-26T04:30:25.971Z,25.33
2022-08-26T04:31:28.763Z,23.20
2022-08-26T04:32:32.602Z,26.00
2022-08-26T04:33:35.420Z,25.80
2022-08-26T04:34:44.871Z,24.83
2022-08-26T04:35:47.590Z,25.90
2022-08-26T04:36:50.162Z,24.67
2022-08-26T04:37:52.813Z,25.30
2022-08-26T04:38:54.492Z,23.60
2022-08-26T04:39:57.156Z,24.57
2022-08-26T04:40:58.767Z,23.53
2022-08-26T04:42:01.868Z,24.23
2022-08-26T04:43:04.004Z,23.30
2022-08-26T04:44:07.651Z,24.10
2022-08-26T04:45:12.490Z,22.63
2022-08-26T04:46:19.469Z,25.37
2022-08-26T04:47:22.149Z,22.93
2022-08-26T04:48:23.811Z,23.30
2022-08-26T04:49:28.529Z,23.70
2022-08-26T04:50:37.912Z,23.17
2022-08-26T04:51:41.022Z,23.60
2022-08-26T04:52:45.773Z,22.90
2022-08-26T04:53:48.756Z,23.50
2022-08-26T04:54:52.309Z,22.67
2022-08-26T04:55:55.608Z,21.23
2022-08-26T04:56:57.454Z,21.40
2022-08-26T04:58:00.603Z,22.50
2022-08-26T04:59:04.394Z,22.20
2022-08-26T05:00:13.218Z,21.10
2022-08-26T05:01:15.039Z,21.87
2022-08-26T05:02:18.070Z,22.37
2022-08-26T05:03:19.795Z,20.80
2022-08-26T05:04:22.529Z,20.53
2022-08-26T05:05:24.152Z,21.00
2022-08-26T05:06:27.949Z,19.93
2022-08-26T05:07:31.136Z,22.00
2022-08-26T05:08:33.573Z,21.77
2022-08-26T05:09:36.338Z,20.73
2022-08-26T05:10:41.120Z,20.20
2022-08-26T05:11:43.761Z,21.17
2022-08-26T05:12:50.391Z,20.00
2022-08-26T05:13:53.035Z,19.67
2022-08-26T05:14:55.043Z,21.60
2022-08-26T05:16:04.419Z,21.13
2022-08-26T05:17:07.067Z,20.63
2022-08-26T05:18:11.439Z,21.00
2022-08-26T05:19:14.544Z,19.50
2022-08-26T05:20:23.914Z,20.10
2022-08-26T05:21:29.397Z,19.37
2022-08-26T05:22:32.076Z,19.70
2022-08-26T05:23:35.900Z,18.70
2022-08-26T05:24:38.593Z,20.10
2022-08-26T05:25:43.127Z,18.87
2022-08-26T05:26:46.896Z,18.67
2022-08-26T05:27:48.488Z,18.40
2022-08-26T05:28:51.296Z,19.80
2022-08-26T05:29:57.205Z,18.70
2022-08-26T05:31:01.205Z,19.40
2022-08-26T05:32:04.648Z,17.17
2022-08-26T05:33:07.515Z,17.50
2022-08-26T05:34:10.406Z,17.70
2022-08-26T05:35:12.244Z,17.97
2022-08-26T05:36:17.846Z,17.87
2022-08-26T05:37:19.529Z,18.10
2022-08-26T05:38:23.301Z,18.23
2022-08-26T05:39:26.601Z,18.40
2022-08-26T05:40:32.047Z,17.07
2022-08-26T05:41:38.289Z,17.03
2022-08-26T05:42:41.203Z,17.30
2022-08-26T05:43:42.977Z,16.30
2022-08-26T05:44:55.613Z,15.83
2022-08-26T05:46:07.970Z,16.73
2022-08-26T05:47:10.684Z,17.63
2022-08-26T05:48:13.851Z,17.93
2022-08-26T05:49:29.430Z,16.00
2022-08-26T05:50:31.129Z,14.50
2022-08-26T05:51:36.118Z,15.97
2022-08-26T05:52:38.105Z,15.50
2022-08-26T05:53:43.750Z,15.10
2022-08-26T05:54:54.406Z,15.50
2022-08-26T05:55:57.116Z,15.30
2022-08-26T05:57:00.824Z,14.27
2022-08-26T05:58:02.825Z,14.67
2022-08-26T05:59:06.030Z,14.67
2022-08-26T06:00:16.194Z,16.00
2022-08-26T06:01:24.119Z,14.80
2022-08-26T06:02:26.082Z,17.00
2022-08-26T06:03:29.192Z,14.90
2022-08-26T06:04:31.675Z,14.80
2022-08-26T06:05:39.149Z,14.70
2022-08-26T06:06:43.193Z,13.77
2022-08-26T06:08:05.134Z,14.90
2022-08-26T06:09:11.185Z,15.20
2022-08-26T06:10:32.573Z,13.87
2022-08-26T06:11:35.601Z,15.07
2022-08-26T06:12:38.152Z,16.47
2022-08-26T06:13:41.558Z,14.57
2022-08-26T06:14:43.769Z,15.63
2022-08-26T06:15:49.152Z,13.43
2022-08-26T06:16:53.561Z,14.50
2022-08-26T06:17:56.149Z,14.20
2022-08-26T06:18:57.790Z,14.23
2022-08-26T06:20:00.715Z,13.30
2022-08-26T06:21:14.789Z,14.50
2022-08-26T06:22:35.876Z,14.37
2022-08-26T06:23:56.560Z,13.87
2022-08-26T06:25:19.268Z,15.13
2022-08-26T06:26:21.984Z,14.20
2022-08-26T06:27:27.283Z,12.40
2022-08-26T06:28:33.992Z,14.30
2022-08-26T06:29:37.578Z,13.57
2022-08-26T06:30:40.792Z,13.10
2022-08-26T06:31:43.738Z,13.80
2022-08-26T06:32:46.886Z,14.50
2022-08-26T06:33:50.399Z,12.90
2022-08-26T06:34:52.268Z,13.10
2022-08-26T06:35:56.677Z,13.50
2022-08-26T06:37:02.724Z,13.97
2022-08-26T06:38:06.549Z,14.57
2022-08-26T06:39:11.400Z,12.50
2022-08-26T06:40:13.484Z,13.83
2022-08-26T06:41:16.967Z,13.77
2022-08-26T06:42:19.175Z,12.60
2022-08-26T06:43:25.500Z,13.00
2022-08-26T06:44:28.886Z,13.50
2022-08-26T06:45:30.674Z,13.10
2022-08-26T06:46:34.623Z,12.77
2022-08-26T06:47:36.508Z,13.40
2022-08-26T06:48:41.365Z,12.73
2022-08-26T06:49:44.317Z,13.03
2022-08-26T06:50:47.705Z,12.40
2022-08-26T06:51:51.757Z,12.10
2022-08-26T06:52:54.370Z,12.77
2022-08-26T06:54:00.134Z,12.20
2022-08-26T06:55:03.172Z,11.60
2022-08-26T06:56:07.653Z,11.20
2022-08-26T06:57:12.145Z,12.90
2022-08-26T06:58:14.023Z,12.90
2022-08-26T06:59:16.686Z,12.80
2022-08-26T07:00:20.691Z,11.17
2022-08-26T07:01:25.645Z,11.17
2022-08-26T07:02:28.622Z,11.90
2022-08-26T07:03:31.745Z,11.37
2022-08-26T07:04:44.087Z,10.27
2022-08-26T07:05:50.403Z,11.43
2022-08-26T07:06:56.644Z,10.40
2022-08-26T07:07:59.481Z,10.63
2022-08-26T07:09:04.996Z,11.20
2022-08-26T07:10:08.447Z,10.97
2022-08-26T07:11:12.624Z,9.80
2022-08-26T07:12:14.282Z,9.57
2022-08-26T07:13:16.904Z,10.77
2022-08-26T07:14:34.931Z,11.57
2022-08-26T07:15:40.905Z,11.67
2022-08-26T07:16:43.888Z,10.43
2022-08-26T07:17:45.704Z,10.70
2022-08-26T07:18:48.865Z,10.77
2022-08-26T07:19:53.983Z,10.20
2022-08-26T07:20:55.683Z,9.73
2022-08-26T07:21:59.304Z,11.00
2022-08-26T07:23:00.949Z,11.00
2022-08-26T07:24:05.052Z,9.90
2022-08-26T07:25:08.677Z,10.73
2022-08-26T07:26:16.104Z,10.70
2022-08-26T07:27:18.881Z,10.50
2022-08-26T07:28:22.693Z,10.60
2022-08-26T07:29:25.412Z,11.27
2022-08-26T07:30:28.229Z,10.30
2022-08-26T07:31:37.364Z,10.20
2022-08-26T07:32:42.356Z,10.53
2022-08-26T07:33:44.881Z,10.30
2022-08-26T07:34:47.578Z,11.87
2022-08-26T07:35:51.622Z,9.97
2022-08-26T07:36:55.284Z,9.77
2022-08-26T07:37:58.111Z,10.10
2022-08-26T07:38:59.789Z,9.97
2022-08-26T07:40:02.527Z,10.50
2022-08-26T07:41:04.879Z,10.13
2022-08-26T07:42:08.574Z,9.97
2022-08-26T07:43:10.391Z,10.63
2022-08-26T07:44:12.971Z,10.90
2022-08-26T07:45:15.628Z,12.07
2022-08-26T07:46:18.567Z,10.30
2022-08-26T07:47:29.949Z,11.50
2022-08-26T07:48:32.327Z,10.97
2022-08-26T07:49:37.976Z,10.23
2022-08-26T07:50:50.266Z,10.37
2022-08-26T07:51:55.195Z,10.10
2022-08-26T07:52:57.959Z,10.13
2022-08-26T07:53:59.798Z,10.37
2022-08-26T07:55:04.396Z,9.77
2022-08-26T07:56:06.300Z,10.77
2022-08-26T07:57:09.391Z,9.43
2022-08-26T07:58:13.091Z,9.67
2022-08-26T07:59:15.799Z,10.57
2022-08-26T08:00:19.002Z,9.50
2022-08-26T08:01:23.471Z,9.50
2022-08-26T08:02:31.343Z,10.20
2022-08-26T08:03:35.529Z,9.70
2022-08-26T08:04:40.274Z,9.53
2022-08-26T08:05:56.785Z,9.23
2022-08-26T08:07:02.773Z,9.30
2022-08-26T08:08:26.621Z,10.17
2022-08-26T08:09:31.760Z,9.40
2022-08-26T08:10:39.525Z,10.57
2022-08-26T08:11:45.623Z,10.37
2022-08-26T08:12:53.897Z,10.00
2022-08-26T08:13:56.847Z,8.77
2022-08-26T08:14:59.698Z,9.00
2022-08-26T08:16:02.310Z,9.40
2022-08-26T08:17:05.472Z,8.63
2022-08-26T08:18:15.336Z,10.10
2022-08-26T08:19:18.546Z,9.50
2022-08-26T08:20:22.043Z,8.80
2022-08-26T08:21:26.342Z,8.73
2022-08-26T08:22:32.456Z,8.23
2022-08-26T08:23:35.383Z,9.43
2022-08-26T08:24:38.890Z,8.30
2022-08-26T08:25:43.776Z,8.43
2022-08-26T08:26:47.100Z,8.17
2022-08-26T08:27:48.801Z,7.93
2022-08-26T08:28:55.120Z,7.30
2022-08-26T08:29:57.167Z,7.80
2022-08-26T08:31:00.287Z,7.83
2022-08-26T08:32:03.526Z,7.67
2022-08-26T08:33:06.733Z,7.50
2022-08-26T08:34:09.591Z,7.47
2022-08-26T08:35:14.343Z,7.30
2022-08-26T08:36:18.627Z,6.03
2022-08-26T08:37:23.346Z,7.50
2022-08-26T08:38:27.400Z,6.70
2022-08-26T08:39:33.357Z,7.10
2022-08-26T08:40:40.440Z,6.97
2022-08-26T08:41:54.580Z,6.60
2022-08-26T08:43:03.531Z,7.70
2022-08-26T08:44:11.116Z,7.07
2022-08-26T08:45:17.690Z,6.90
2022-08-26T08:46:21.478Z,6.47
2022-08-26T08:47:29.476Z,5.80
2022-08-26T08:48:35.872Z,6.20
2022-08-26T08:49:38.013Z,5.87
2022-08-26T08:50:45.720Z,5.63
2022-08-26T08:51:52.009Z,6.30
2022-08-26T08:53:03.946Z,6.50
2022-08-26T08:54:13.459Z,6.50
2022-08-26T08:55:18.209Z,6.70
2022-08-26T08:56:29.109Z,6.27
2022-08-26T08:57:46.646Z,6.07
2022-08-26T08:58:56.786Z,5.73
2022-08-26T09:00:04.753Z,6.97
2022-08-26T09:01:18.418Z,6.47
2022-08-26T09:02:28.849Z,6.33
2022-08-26T09:03:45.520Z,5.93
2022-08-26T09:04:58.507Z,5.37
2022-08-26T09:06:01.653Z,5.63
2022-08-26T09:07:09.929Z,6.27
2022-08-26T09:08:19.924Z,5.50
2022-08-26T09:09:30.143Z,5.93
2022-08-26T09:10:38.093Z,6.33
2022-08-26T09:11:39.742Z,6.83
2022-08-26T09:12:44.244Z,6.37
2022-08-26T09:13:51.466Z,8.13
2022-08-26T09:14:57.700Z,6.10
2022-08-26T09:16:08.224Z,5.83
2022-08-26T09:17:22.529Z,6.60
2022-08-26T09:18:46.059Z,6.20
2022-08-26T09:19:52.315Z,5.90
2022-08-26T09:20:58.269Z,6.53
2022-08-26T09:22:06.994Z,6.40
2022-08-26T09:23:11.348Z,5.43
2022-08-26T09:24:14.169Z,4.90
2022-08-26T09:25:18.630Z,4.70
2022-08-26T09:26:29.090Z,5.10
2022-08-26T09:27:41.531Z,4.77
2022-08-26T09:28:49.042Z,5.27
2022-08-26T09:29:51.512Z,4.57
2022-08-26T09:31:11.493Z,5.30
2022-08-26T09:32:19.478Z,4.40
2022-08-26T09:33:29.142Z,5.10
2022-08-26T09:34:32.947Z,5.20
2022-08-26T09:35:37.659Z,5.73
2022-08-26T09:36:43.669Z,4.97
2022-08-26T09:38:55.290Z,6.00
2022-08-26T09:40:13.327Z,5.20
2022-08-26T09:41:27.965Z,5.00
2022-08-26T09:42:29.556Z,5.30
2022-08-26T09:43:32.740Z,5.33
2022-08-26T09:44:35.518Z,5.40
2022-08-26T09:45:39.783Z,5.80
2022-08-26T09:46:46.482Z,5.30
2022-08-26T09:47:55.191Z,4.63
2022-08-26T09:48:57.992Z,5.63
2022-08-26T09:50:09.923Z,4.60
2022-08-26T09:51:33.124Z,5.40
2022-08-26T09:52:34.915Z,4.97
2022-08-26T09:53:52.028Z,5.87
2022-08-26T09:55:16.996Z,4.57
2022-08-26T09:56:27.909Z,6.00
2022-08-26T09:57:33.193Z,5.10
2022-08-26T09:58:40.021Z,5.30
2022-08-26T09:59:43.879Z,6.33
2022-08-26T10:00:55.989Z,6.07
2022-08-26T10:02:18.324Z,5.70
2022-08-26T10:03:28.439Z,5.90
2022-08-26T10:04:33.656Z,5.50
2022-08-26T10:05:43.611Z,6.03
2022-08-26T10:06:57.712Z,5.23
2022-08-26T10:08:00.811Z,5.90
2022-08-26T10:09:08.343Z,6.13
2022-08-26T10:10:18.197Z,5.20
2022-08-26T10:11:27.955Z,5.50
2022-08-26T10:12:34.624Z,4.70
2022-08-26T10:13:43.705Z,5.40
2022-08-26T10:14:49.691Z,5.33
2022-08-26T10:15:59.031Z,4.67
2022-08-26T10:17:05.308Z,4.83
2022-08-26T10:18:16.090Z,5.13
2022-08-26T10:19:22.449Z,5.17
2022-08-26T10:20:28.133Z,4.93
2022-08-26T10:21:36.273Z,4.53
2022-08-26T10:22:44.049Z,4.80
2022-08-26T10:23:50.349Z,5.60
2022-08-26T10:24:55.840Z,4.77
2022-08-26T10:26:05.244Z,4.73
2022-08-26T10:27:28.607Z,4.77
2022-08-26T10:28:39.863Z,4.37
2022-08-26T10:29:46.634Z,4.60
2022-08-26T10:30:56.401Z,4.07
2022-08-26T10:32:03.491Z,3.83
2022-08-26T10:33:08.779Z,4.40
2022-08-26T10:34:14.158Z,4.63
2022-08-26T10:35:19.131Z,4.63
2022-08-26T10:36:58.640Z,4.30
2022-08-26T10:38:11.797Z,3.60
2022-08-26T10:39:23.727Z,5.07
2022-08-26T10:40:27.366Z,3.90
2022-08-26T10:41:33.698Z,4.60
2022-08-26T10:42:41.507Z,4.00
2022-08-26T10:43:53.423Z,4.17
2022-08-26T10:45:02.497Z,4.70
2022-08-26T10:46:09.230Z,5.13
2022-08-26T10:47:16.570Z,4.87
2022-08-26T10:48:25.806Z,5.80
2022-08-26T10:49:40.658Z,4.70
2022-08-26T10:50:44.679Z,5.03
2022-08-26T10:51:57.771Z,5.50
2022-08-26T10:53:05.843Z,4.60
2022-08-26T10:54:17.020Z,5.53
2022-08-26T10:55:29.879Z,6.23
2022-08-26T10:56:46.386Z,5.80
2022-08-26T10:57:57.054Z,4.60
2022-08-26T10:59:12.251Z,5.53
2022-08-26T11:00:36.702Z,4.87
2022-08-26T11:01:51.029Z,5.27
2022-08-26T11:03:01.013Z,5.17
2022-08-26T11:04:10.407Z,4.20
2022-08-26T11:05:19.614Z,5.13
2022-08-26T11:06:23.060Z,5.00
2022-08-26T11:07:43.854Z,4.93
2022-08-26T11:08:47.512Z,5.30
2022-08-26T11:09:50.127Z,6.03
2022-08-26T11:10:58.922Z,5.70
2022-08-26T11:12:09.991Z,4.97
2022-08-26T11:13:13.056Z,5.20
2022-08-26T11:16:10.038Z,4.97
2022-08-26T11:17:12.692Z,5.03
2022-08-26T11:18:37.032Z,4.83
2022-08-26T11:20:01.701Z,4.67
2022-08-26T11:21:47.796Z,5.53
2022-08-26T11:22:55.100Z,4.80
2022-08-26T11:23:56.886Z,3.73
2022-08-26T11:25:11.608Z,3.90
2022-08-26T11:26:18.876Z,3.93
2022-08-26T11:28:05.522Z,3.60
2022-08-26T11:29:13.418Z,4.80
2022-08-26T11:30:36.867Z,3.93
2022-08-26T11:31:57.652Z,4.37
2022-08-26T11:32:59.815Z,3.70
2022-08-26T11:34:03.943Z,3.80
2022-08-26T11:35:08.325Z,3.97
2022-08-26T11:36:12.652Z,3.63
2022-08-26T11:38:29.305Z,3.67
2022-08-26T11:39:36.675Z,4.13
2022-08-26T11:40:41.572Z,3.70
2022-08-26T11:41:45.404Z,3.27
2022-08-26T11:42:51.647Z,3.60
2022-08-26T11:43:54.135Z,4.60
2022-08-26T11:44:59.325Z,3.70
2022-08-26T11:46:06.187Z,3.43
2022-08-26T11:47:15.455Z,3.27
2022-08-26T11:48:20.972Z,3.47
2022-08-26T11:49:24.908Z,3.13
2022-08-26T11:50:29.747Z,3.97
2022-08-26T11:51:35.897Z,3.83
2022-08-26T11:52:40.909Z,3.63
2022-08-26T11:53:47.198Z,3.43
2022-08-26T11:55:03.117Z,3.70
2022-08-26T11:56:10.080Z,4.10
2022-08-26T11:57:13.654Z,3.77
2022-08-26T11:58:16.940Z,3.83
2022-08-26T11:59:25.107Z,4.10
2022-08-26T12:00:33.433Z,3.47
2022-08-26T12:01:40.728Z,4.50
2022-08-26T12:02:45.233Z,3.40
2022-08-26T12:03:50.038Z,3.53
2022-08-26T12:04:55.460Z,3.80
2022-08-26T12:05:58.740Z,4.13
2022-08-26T12:07:02.441Z,3.83
2022-08-26T12:08:09.851Z,3.63
2022-08-26T12:09:21.706Z,3.90
2022-08-26T12:10:30.077Z,3.23
2022-08-26T12:11:35.456Z,3.70
2022-08-26T12:12:38.681Z,4.00
2022-08-26T12:13:42.603Z,3.13
2022-08-26T12:14:45.078Z,4.13
2022-08-26T12:15:55.946Z,3.50
2022-08-26T12:17:09.846Z,4.40
2022-08-26T12:18:29.713Z,3.67
2022-08-26T12:19:34.630Z,3.97
2022-08-26T12:20:53.729Z,3.57
2022-08-26T12:22:01.917Z,3.30
2022-08-26T12:23:04.914Z,3.00
2022-08-26T12:24:09.911Z,3.20
2022-08-26T12:25:12.653Z,3.57
2022-08-26T12:26:23.306Z,2.70
2022-08-26T12:27:27.336Z,3.10
2022-08-26T12:28:32.113Z,3.43
2022-08-26T12:29:35.099Z,3.40
2022-08-26T12:30:37.050Z,3.40
2022-08-26T12:31:42.415Z,3.43
2022-08-26T12:32:56.548Z,4.40
2022-08-26T12:34:04.026Z,3.60
2022-08-26T12:35:10.830Z,3.17
2022-08-26T12:36:13.562Z,3.43
2022-08-26T12:37:16.628Z,3.33
2022-08-26T12:38:21.342Z,3.50
2022-08-26T12:39:30.173Z,4.30
2022-08-26T12:40:36.347Z,3.40
2022-08-26T12:41:41.495Z,3.00
2022-08-26T12:42:44.352Z,3.33
2022-08-26T12:43:46.139Z,3.47
2022-08-26T12:44:54.089Z,3.97
2022-08-26T12:45:59.734Z,3.20
2022-08-26T12:47:09.143Z,3.10
2022-08-26T12:48:14.385Z,3.00
2022-08-26T12:49:18.958Z,3.10
2022-08-26T12:50:24.684Z,2.77
2022-08-26T12:51:29.157Z,3.50
2022-08-26T12:52:35.514Z,2.83
2022-08-26T12:53:43.017Z,2.83
2022-08-26T12:55:02.637Z,3.10
2022-08-26T12:56:20.609Z,2.80
2022-08-26T12:57:27.547Z,2.67
2022-08-26T12:58:32.792Z,2.70
2022-08-26T12:59:34.413Z,2.93
2022-08-26T13:00:40.582Z,3.40
2022-08-26T13:01:45.608Z,3.00
2022-08-26T13:02:47.369Z,2.60
2022-08-26T13:03:51.746Z,2.63
2022-08-26T13:05:00.776Z,2.40
2022-08-26T13:06:25.727Z,3.03
2022-08-26T13:07:27.565Z,2.37
2022-08-26T13:08:31.260Z,2.67
2022-08-26T13:09:32.880Z,3.60
2022-08-26T13:10:36.628Z,2.40
2022-08-26T13:12:00.363Z,2.70
2022-08-26T13:13:04.021Z,2.50
2022-08-26T13:14:08.656Z,2.50
2022-08-26T13:15:10.467Z,2.77
2022-08-26T13:16:14.010Z,2.80
2022-08-26T13:17:16.887Z,2.97
2022-08-26T13:18:19.514Z,2.43
2022-08-26T13:19:25.333Z,2.87
2022-08-26T13:20:29.362Z,2.30
2022-08-26T13:21:37.725Z,2.30
2022-08-26T13:22:42.589Z,2.70
2022-08-26T13:23:45.548Z,2.70
2022-08-26T13:24:47.228Z,2.33
2022-08-26T13:25:50.053Z,2.50
2022-08-26T13:26:52.949Z,2.80
2022-08-26T13:27:55.199Z,2.70
2022-08-26T13:29:02.228Z,2.40
2022-08-26T13:30:05.731Z,3.03
2022-08-26T13:31:11.216Z,3.00
2022-08-26T13:32:14.906Z,2.60
2022-08-26T13:33:19.344Z,2.67
2022-08-26T13:34:24.332Z,2.50
2022-08-26T13:35:27.736Z,2.20
2022-08-26T13:36:32.014Z,2.60
2022-08-26T13:37:35.285Z,2.60
2022-08-26T13:38:38.403Z,3.20
2022-08-26T13:39:41.815Z,2.50
2022-08-26T13:40:44.764Z,3.37
2022-08-26T13:41:47.700Z,2.80
2022-08-26T13:42:50.316Z,2.77
2022-08-26T13:43:52.914Z,3.33
2022-08-26T13:44:57.880Z,2.90
2022-08-26T13:46:01.685Z,2.67
2022-08-26T13:47:03.397Z,2.83
2022-08-26T13:48:07.743Z,3.13
2022-08-26T13:49:09.958Z,3.07
2022-08-26T13:50:12.599Z,2.63
2022-08-26T13:51:14.404Z,2.90
2022-08-26T13:52:18.574Z,2.73
2022-08-26T13:53:33.169Z,2.70
2022-08-26T13:54:34.758Z,2.97
2022-08-26T13:55:37.392Z,2.70
2022-08-26T13:56:39.032Z,2.80
2022-08-26T13:57:41.643Z,2.70
2022-08-26T13:58:43.315Z,2.70
2022-08-26T13:59:48.694Z,2.43
2022-08-26T14:00:50.340Z,3.00
2022-08-26T14:01:52.982Z,2.97
2022-08-26T14:02:56.020Z,2.57
2022-08-26T14:03:59.585Z,2.77
2022-08-26T14:05:02.602Z,2.93
2022-08-26T14:06:05.481Z,3.13
2022-08-26T14:07:08.281Z,2.53
2022-08-26T14:08:11.670Z,2.57
2022-08-26T14:09:14.260Z,2.70
2022-08-26T14:10:15.912Z,3.63
2022-08-26T14:11:19.375Z,2.53
2022-08-26T14:12:21.256Z,3.17
2022-08-26T14:13:23.955Z,3.03
2022-08-26T14:14:25.890Z,3.13
2022-08-26T14:15:29.161Z,2.50
2022-08-26T14:16:35.915Z,3.33
2022-08-26T14:17:39.145Z,2.97
2022-08-26T14:18:45.183Z,3.10
2022-08-26T14:19:51.312Z,2.90
2022-08-26T14:20:52.954Z,2.70
2022-08-26T14:21:55.691Z,2.83
2022-08-26T14:23:13.051Z,3.07
2022-08-26T14:24:17.802Z,2.70
2022-08-26T14:25:20.084Z,2.73